sensor_id;sensor_type;location;lat;lon;timestamp;temperature;humidity
11934;DHT22;6026;48.784;9.198;2023-02-21T00:02:27;7.20;99.90
11934;DHT22;6026;48.784;9.198;2023-02-21T00:05:11;7.10;99.90
11934;DHT22;6026;48.784;9.198;2023-02-21T00:07:55;7.00;99.90
11934;DHT22;6026;48.784;9.198;2023-02-21T00:10:39;7.00;99.90
11934;DHT22;6026;48.784;9.198;2023-02-21T00:13:23;7.00;99.90
11934;DHT22;6026;48.784;9.198;2023-02-21T00:16:07;7.10;99.90
11934;DHT22;6026;48.784;9.198;2023-02-21T00:18:51;7.10;99.90
11934;DHT22;6026;48.784;9.198;2023-02-21T00:21:35;7.10;99.90
11934;DHT22;6026;48.784;9.198;2023-02-21T00:24:19;7.10;99.90
11934;DHT22;6026;48.784;9.198;2023-02-21T00:27:03;7.10;99.90
11934;DHT22;6026;48.784;9.198;2023-02-21T00:29:49;7.10;99.90
11934;DHT22;6026;48.784;9.198;2023-02-21T00:32:33;7.10;99.90
11934;DHT22;6026;48.784;9.198;2023-02-21T00:35:17;7.10;99.90
11934;DHT22;6026;48.784;9.198;2023-02-21T00:38:01;7.10;99.90
11934;DHT22;6026;48.784;9.198;2023-02-21T00:40:45;7.10;99.90
11934;DHT22;6026;48.784;9.198;2023-02-21T00:43:31;7.00;99.90
11934;DHT22;6026;48.784;9.198;2023-02-21T00:46:15;6.90;99.90
11934;DHT22;6026;48.784;9.198;2023-02-21T00:49:00;6.90;99.90
11934;DHT22;6026;48.784;9.198;2023-02-21T00:51:44;6.90;99.90
11934;DHT22;6026;48.784;9.198;2023-02-21T00:54:28;6.90;99.90
11934;DHT22;6026;48.784;9.198;2023-02-21T00:57:13;7.00;99.90
11934;DHT22;6026;48.784;9.198;2023-02-21T00:59:57;7.00;99.90
11934;DHT22;6026;48.784;9.198;2023-02-21T01:02:41;7.00;99.90
11934;DHT22;6026;48.784;9.198;2023-02-21T01:05:25;6.90;99.90
11934;DHT22;6026;48.784;9.198;2023-02-21T01:08:10;6.90;99.90
11934;DHT22;6026;48.784;9.198;2023-02-21T01:10:54;6.80;99.90
11934;DHT22;6026;48.784;9.198;2023-02-21T01:13:38;6.80;99.90
11934;DHT22;6026;48.784;9.198;2023-02-21T01:16:22;6.90;99.90
11934;DHT22;6026;48.784;9.198;2023-02-21T01:19:06;6.90;99.90
11934;DHT22;6026;48.784;9.198;2023-02-21T01:21:50;6.90;99.90
11934;DHT22;6026;48.784;9.198;2023-02-21T01:24:34;6.80;99.90
11934;DHT22;6026;48.784;9.198;2023-02-21T01:27:18;6.80;99.90
11934;DHT22;6026;48.784;9.198;2023-02-21T01:30:03;6.80;99.90
11934;DHT22;6026;48.784;9.198;2023-02-21T01:32:47;6.80;99.90
11934;DHT22;6026;48.784;9.198;2023-02-21T01:35:31;6.80;99.90
11934;DHT22;6026;48.784;9.198;2023-02-21T01:38:15;6.80;99.90
11934;DHT22;6026;48.784;9.198;2023-02-21T01:40:59;6.80;99.90
11934;DHT22;6026;48.784;9.198;2023-02-21T01:43:58;6.70;99.90
11934;DHT22;6026;48.784;9.198;2023-02-21T01:46:42;6.70;99.90
11934;DHT22;6026;48.784;9.198;2023-02-21T01:49:27;6.70;99.90
11934;DHT22;6026;48.784;9.198;2023-02-21T01:52:12;6.80;99.90
11934;DHT22;6026;48.784;9.198;2023-02-21T01:54:56;6.80;99.90
11934;DHT22;6026;48.784;9.198;2023-02-21T01:57:43;6.80;99.90
11934;DHT22;6026;48.784;9.198;2023-02-21T02:00:28;6.80;99.90
11934;DHT22;6026;48.784;9.198;2023-02-21T02:03:16;6.80;99.90
11934;DHT22;6026;48.784;9.198;2023-02-21T02:06:07;6.70;99.90
11934;DHT22;6026;48.784;9.198;2023-02-21T02:08:52;6.70;99.90
11934;DHT22;6026;48.784;9.198;2023-02-21T02:18:08;6.70;99.90
11934;DHT22;6026;48.784;9.198;2023-02-21T02:20:58;6.60;99.90
11934;DHT22;6026;48.784;9.198;2023-02-21T02:37:39;6.30;99.90
11934;DHT22;6026;48.784;9.198;2023-02-21T02:40:45;6.30;99.90
11934;DHT22;6026;48.784;9.198;2023-02-21T02:43:26;6.40;99.90
11934;DHT22;6026;48.784;9.198;2023-02-21T02:46:16;6.30;99.90
11934;DHT22;6026;48.784;9.198;2023-02-21T02:51:17;6.30;99.90
11934;DHT22;6026;48.784;9.198;2023-02-21T02:53:43;6.20;99.90
11934;DHT22;6026;48.784;9.198;2023-02-21T02:56:12;6.20;99.90
11934;DHT22;6026;48.784;9.198;2023-02-21T02:58:50;6.10;99.90
11934;DHT22;6026;48.784;9.198;2023-02-21T03:01:39;6.10;99.90
11934;DHT22;6026;48.784;9.198;2023-02-21T03:06:51;5.90;99.90
11934;DHT22;6026;48.784;9.198;2023-02-21T03:15:12;5.60;99.90
11934;DHT22;6026;48.784;9.198;2023-02-21T03:17:42;5.60;99.90
11934;DHT22;6026;48.784;9.198;2023-02-21T03:20:11;5.60;99.90
11934;DHT22;6026;48.784;9.198;2023-02-21T03:22:39;5.60;99.90
11934;DHT22;6026;48.784;9.198;2023-02-21T03:25:05;5.50;99.90
11934;DHT22;6026;48.784;9.198;2023-02-21T03:27:32;5.50;99.90
11934;DHT22;6026;48.784;9.198;2023-02-21T03:30:03;5.40;99.90
11934;DHT22;6026;48.784;9.198;2023-02-21T03:32:35;5.40;99.90
11934;DHT22;6026;48.784;9.198;2023-02-21T03:35:02;5.40;99.90
11934;DHT22;6026;48.784;9.198;2023-02-21T03:39:59;5.30;99.90
11934;DHT22;6026;48.784;9.198;2023-02-21T03:42:25;5.30;99.90
11934;DHT22;6026;48.784;9.198;2023-02-21T03:44:50;5.30;99.90
11934;DHT22;6026;48.784;9.198;2023-02-21T03:47:16;5.20;99.90
11934;DHT22;6026;48.784;9.198;2023-02-21T03:49:41;5.10;99.90
11934;DHT22;6026;48.784;9.198;2023-02-21T03:52:09;5.10;99.90
11934;DHT22;6026;48.784;9.198;2023-02-21T03:54:37;5.10;99.90
11934;DHT22;6026;48.784;9.198;2023-02-21T03:57:03;5.10;99.90
11934;DHT22;6026;48.784;9.198;2023-02-21T03:59:28;5.00;99.90
11934;DHT22;6026;48.784;9.198;2023-02-21T04:01:54;4.90;99.90
11934;DHT22;6026;48.784;9.198;2023-02-21T04:04:20;4.90;99.90
11934;DHT22;6026;48.784;9.198;2023-02-21T04:06:45;4.90;99.90
11934;DHT22;6026;48.784;9.198;2023-02-21T04:09:11;4.80;99.90
11934;DHT22;6026;48.784;9.198;2023-02-21T04:11:36;4.80;99.90
11934;DHT22;6026;48.784;9.198;2023-02-21T04:14:02;4.80;99.90
11934;DHT22;6026;48.784;9.198;2023-02-21T04:16:29;4.80;99.90
11934;DHT22;6026;48.784;9.198;2023-02-21T04:18:54;4.70;99.90
11934;DHT22;6026;48.784;9.198;2023-02-21T04:21:20;4.70;99.90
11934;DHT22;6026;48.784;9.198;2023-02-21T04:23:45;4.70;99.90
11934;DHT22;6026;48.784;9.198;2023-02-21T04:26:11;4.60;99.90
11934;DHT22;6026;48.784;9.198;2023-02-21T04:28:36;4.50;99.90
11934;DHT22;6026;48.784;9.198;2023-02-21T04:31:02;4.50;99.90
11934;DHT22;6026;48.784;9.198;2023-02-21T04:33:28;4.50;99.90
11934;DHT22;6026;48.784;9.198;2023-02-21T04:35:53;4.40;99.90
11934;DHT22;6026;48.784;9.198;2023-02-21T04:38:19;4.40;99.90
11934;DHT22;6026;48.784;9.198;2023-02-21T04:40:44;4.40;99.90
11934;DHT22;6026;48.784;9.198;2023-02-21T04:43:10;4.40;99.90
11934;DHT22;6026;48.784;9.198;2023-02-21T04:45:35;4.30;99.90
11934;DHT22;6026;48.784;9.198;2023-02-21T04:48:01;4.20;99.90
11934;DHT22;6026;48.784;9.198;2023-02-21T04:50:26;4.20;99.90
11934;DHT22;6026;48.784;9.198;2023-02-21T04:52:53;4.20;99.90
11934;DHT22;6026;48.784;9.198;2023-02-21T04:55:18;4.20;99.90
11934;DHT22;6026;48.784;9.198;2023-02-21T04:57:44;4.20;99.90
11934;DHT22;6026;48.784;9.198;2023-02-21T05:00:10;4.10;99.90
11934;DHT22;6026;48.784;9.198;2023-02-21T05:02:36;4.10;99.90
11934;DHT22;6026;48.784;9.198;2023-02-21T05:05:02;4.10;99.90
11934;DHT22;6026;48.784;9.198;2023-02-21T05:07:27;4.10;99.90
11934;DHT22;6026;48.784;9.198;2023-02-21T05:09:53;4.10;99.90
11934;DHT22;6026;48.784;9.198;2023-02-21T05:12:18;4.10;99.90
11934;DHT22;6026;48.784;9.198;2023-02-21T05:14:44;4.10;99.90
11934;DHT22;6026;48.784;9.198;2023-02-21T05:17:09;4.00;99.90
11934;DHT22;6026;48.784;9.198;2023-02-21T05:19:35;4.00;99.90
11934;DHT22;6026;48.784;9.198;2023-02-21T05:22:01;4.00;99.90
11934;DHT22;6026;48.784;9.198;2023-02-21T05:24:29;3.90;99.90
11934;DHT22;6026;48.784;9.198;2023-02-21T05:26:56;3.90;99.90
11934;DHT22;6026;48.784;9.198;2023-02-21T05:29:22;3.90;99.90
11934;DHT22;6026;48.784;9.198;2023-02-21T05:31:47;3.90;99.90
11934;DHT22;6026;48.784;9.198;2023-02-21T05:34:14;3.90;99.90
11934;DHT22;6026;48.784;9.198;2023-02-21T05:36:40;3.80;99.90
11934;DHT22;6026;48.784;9.198;2023-02-21T05:39:06;3.70;99.90
11934;DHT22;6026;48.784;9.198;2023-02-21T05:41:32;3.80;99.90
11934;DHT22;6026;48.784;9.198;2023-02-21T05:44:00;3.70;99.90
11934;DHT22;6026;48.784;9.198;2023-02-21T05:46:33;3.70;99.90
11934;DHT22;6026;48.784;9.198;2023-02-21T05:49:01;3.80;99.90
11934;DHT22;6026;48.784;9.198;2023-02-21T05:51:32;3.70;99.90
11934;DHT22;6026;48.784;9.198;2023-02-21T05:53:58;3.70;99.90
11934;DHT22;6026;48.784;9.198;2023-02-21T05:56:24;3.70;99.90
11934;DHT22;6026;48.784;9.198;2023-02-21T05:58:49;3.70;99.90
11934;DHT22;6026;48.784;9.198;2023-02-21T06:01:15;3.70;99.90
11934;DHT22;6026;48.784;9.198;2023-02-21T06:03:41;3.70;99.90
11934;DHT22;6026;48.784;9.198;2023-02-21T06:06:06;3.80;99.90
11934;DHT22;6026;48.784;9.198;2023-02-21T06:08:32;3.70;99.90
11934;DHT22;6026;48.784;9.198;2023-02-21T06:10:57;3.70;99.90
11934;DHT22;6026;48.784;9.198;2023-02-21T06:13:23;3.70;99.90
11934;DHT22;6026;48.784;9.198;2023-02-21T06:15:48;3.70;99.90
11934;DHT22;6026;48.784;9.198;2023-02-21T06:18:15;3.70;99.90
11934;DHT22;6026;48.784;9.198;2023-02-21T06:20:40;3.70;99.90
11934;DHT22;6026;48.784;9.198;2023-02-21T06:23:07;3.70;99.90
11934;DHT22;6026;48.784;9.198;2023-02-21T06:25:32;3.70;99.90
11934;DHT22;6026;48.784;9.198;2023-02-21T06:27:58;3.80;99.90
11934;DHT22;6026;48.784;9.198;2023-02-21T06:30:24;3.80;99.90
11934;DHT22;6026;48.784;9.198;2023-02-21T06:32:49;3.80;99.90
11934;DHT22;6026;48.784;9.198;2023-02-21T06:35:15;3.80;99.90
11934;DHT22;6026;48.784;9.198;2023-02-21T06:37:40;3.80;99.90
11934;DHT22;6026;48.784;9.198;2023-02-21T06:40:07;3.80;99.90
11934;DHT22;6026;48.784;9.198;2023-02-21T06:42:33;3.80;99.90
11934;DHT22;6026;48.784;9.198;2023-02-21T06:44:58;3.70;99.90
11934;DHT22;6026;48.784;9.198;2023-02-21T06:47:24;3.70;99.90
11934;DHT22;6026;48.784;9.198;2023-02-21T06:49:49;3.80;99.90
11934;DHT22;6026;48.784;9.198;2023-02-21T06:52:15;3.70;99.90
11934;DHT22;6026;48.784;9.198;2023-02-21T06:54:40;3.70;99.90
11934;DHT22;6026;48.784;9.198;2023-02-21T06:57:06;3.80;99.90
11934;DHT22;6026;48.784;9.198;2023-02-21T06:59:32;3.80;99.90
11934;DHT22;6026;48.784;9.198;2023-02-21T07:01:57;4.00;99.90
11934;DHT22;6026;48.784;9.198;2023-02-21T07:04:24;4.30;99.90
11934;DHT22;6026;48.784;9.198;2023-02-21T07:06:49;4.40;99.90
11934;DHT22;6026;48.784;9.198;2023-02-21T07:09:15;4.50;99.90
11934;DHT22;6026;48.784;9.198;2023-02-21T07:11:41;4.70;99.90
11934;DHT22;6026;48.784;9.198;2023-02-21T07:14:06;5.00;99.90
11934;DHT22;6026;48.784;9.198;2023-02-21T07:16:32;5.20;99.90
11934;DHT22;6026;48.784;9.198;2023-02-21T07:18:58;5.50;99.90
11934;DHT22;6026;48.784;9.198;2023-02-21T07:21:25;5.80;99.90
11934;DHT22;6026;48.784;9.198;2023-02-21T07:23:50;6.10;99.90
11934;DHT22;6026;48.784;9.198;2023-02-21T07:26:16;6.40;99.90
11934;DHT22;6026;48.784;9.198;2023-02-21T07:28:42;6.70;99.90
11934;DHT22;6026;48.784;9.198;2023-02-21T07:31:07;6.90;99.90
11934;DHT22;6026;48.784;9.198;2023-02-21T07:33:35;6.90;99.90
11934;DHT22;6026;48.784;9.198;2023-02-21T07:36:01;6.80;99.90
11934;DHT22;6026;48.784;9.198;2023-02-21T07:38:28;6.70;99.90
11934;DHT22;6026;48.784;9.198;2023-02-21T07:40:56;6.70;99.90
11934;DHT22;6026;48.784;9.198;2023-02-21T07:43:21;6.70;99.90
11934;DHT22;6026;48.784;9.198;2023-02-21T07:45:47;6.80;99.90
11934;DHT22;6026;48.784;9.198;2023-02-21T07:48:13;6.90;99.90
11934;DHT22;6026;48.784;9.198;2023-02-21T07:50:43;7.20;99.90
11934;DHT22;6026;48.784;9.198;2023-02-21T07:53:09;7.50;99.90
11934;DHT22;6026;48.784;9.198;2023-02-21T07:55:34;7.70;99.90
11934;DHT22;6026;48.784;9.198;2023-02-21T07:58:00;8.20;99.90
11934;DHT22;6026;48.784;9.198;2023-02-21T08:00:26;8.70;99.90
11934;DHT22;6026;48.784;9.198;2023-02-21T08:02:52;9.10;99.90
11934;DHT22;6026;48.784;9.198;2023-02-21T08:05:19;9.50;99.90
11934;DHT22;6026;48.784;9.198;2023-02-21T08:07:46;9.70;99.90
11934;DHT22;6026;48.784;9.198;2023-02-21T08:10:18;10.00;99.90
11934;DHT22;6026;48.784;9.198;2023-02-21T08:12:44;10.40;99.90
11934;DHT22;6026;48.784;9.198;2023-02-21T08:15:09;10.90;99.90
11934;DHT22;6026;48.784;9.198;2023-02-21T08:17:35;11.20;99.90
11934;DHT22;6026;48.784;9.198;2023-02-21T08:20:01;11.50;99.90
11934;DHT22;6026;48.784;9.198;2023-02-21T08:22:27;11.70;99.90
11934;DHT22;6026;48.784;9.198;2023-02-21T08:24:52;12.10;99.90
11934;DHT22;6026;48.784;9.198;2023-02-21T08:27:18;12.60;99.90
11934;DHT22;6026;48.784;9.198;2023-02-21T08:29:43;13.20;99.90
11934;DHT22;6026;48.784;9.198;2023-02-21T08:32:09;13.60;99.90
11934;DHT22;6026;48.784;9.198;2023-02-21T08:34:35;13.90;99.90
11934;DHT22;6026;48.784;9.198;2023-02-21T08:37:01;13.90;99.90
11934;DHT22;6026;48.784;9.198;2023-02-21T08:39:31;14.00;99.90
11934;DHT22;6026;48.784;9.198;2023-02-21T08:41:56;14.10;99.90
11934;DHT22;6026;48.784;9.198;2023-02-21T08:44:22;14.20;99.90
11934;DHT22;6026;48.784;9.198;2023-02-21T08:46:48;14.30;99.90
11934;DHT22;6026;48.784;9.198;2023-02-21T08:49:13;14.50;99.90
11934;DHT22;6026;48.784;9.198;2023-02-21T08:51:39;14.60;99.90
11934;DHT22;6026;48.784;9.198;2023-02-21T08:54:05;14.70;99.90
11934;DHT22;6026;48.784;9.198;2023-02-21T08:56:31;15.00;99.90
11934;DHT22;6026;48.784;9.198;2023-02-21T08:58:57;15.20;99.90
11934;DHT22;6026;48.784;9.198;2023-02-21T09:01:24;15.50;99.90
11934;DHT22;6026;48.784;9.198;2023-02-21T09:03:54;15.80;99.90
11934;DHT22;6026;48.784;9.198;2023-02-21T09:06:19;15.70;99.90
11934;DHT22;6026;48.784;9.198;2023-02-21T09:08:45;16.10;99.90
11934;DHT22;6026;48.784;9.198;2023-02-21T09:11:11;16.40;99.90
11934;DHT22;6026;48.784;9.198;2023-02-21T09:13:36;16.40;99.90
11934;DHT22;6026;48.784;9.198;2023-02-21T09:16:02;16.50;99.90
11934;DHT22;6026;48.784;9.198;2023-02-21T09:18:29;16.50;99.90
11934;DHT22;6026;48.784;9.198;2023-02-21T09:20:55;16.50;99.90
11934;DHT22;6026;48.784;9.198;2023-02-21T09:23:23;16.60;99.90
11934;DHT22;6026;48.784;9.198;2023-02-21T09:25:50;16.70;99.90
11934;DHT22;6026;48.784;9.198;2023-02-21T09:28:16;16.80;99.90
11934;DHT22;6026;48.784;9.198;2023-02-21T09:30:42;17.00;99.90
11934;DHT22;6026;48.784;9.198;2023-02-21T09:33:08;16.80;99.90
11934;DHT22;6026;48.784;9.198;2023-02-21T09:35:34;17.30;99.90
11934;DHT22;6026;48.784;9.198;2023-02-21T09:38:00;17.70;99.90
11934;DHT22;6026;48.784;9.198;2023-02-21T09:40:47;18.00;99.90
11934;DHT22;6026;48.784;9.198;2023-02-21T09:43:14;18.20;99.90
11934;DHT22;6026;48.784;9.198;2023-02-21T09:45:41;18.40;99.90
11934;DHT22;6026;48.784;9.198;2023-02-21T09:48:13;18.50;99.90
11934;DHT22;6026;48.784;9.198;2023-02-21T09:50:53;18.70;99.90
11934;DHT22;6026;48.784;9.198;2023-02-21T09:53:32;19.00;99.90
11934;DHT22;6026;48.784;9.198;2023-02-21T09:56:17;18.80;99.90
11934;DHT22;6026;48.784;9.198;2023-02-21T09:58:45;18.70;99.90
11934;DHT22;6026;48.784;9.198;2023-02-21T10:01:24;19.00;99.90
11934;DHT22;6026;48.784;9.198;2023-02-21T10:06:48;19.10;99.90
11934;DHT22;6026;48.784;9.198;2023-02-21T10:09:48;19.40;99.90
11934;DHT22;6026;48.784;9.198;2023-02-21T10:12:22;19.80;99.90
11934;DHT22;6026;48.784;9.198;2023-02-21T10:15:24;19.90;99.90
11934;DHT22;6026;48.784;9.198;2023-02-21T10:18:24;20.00;99.90
11934;DHT22;6026;48.784;9.198;2023-02-21T10:21:01;20.00;99.90
11934;DHT22;6026;48.784;9.198;2023-02-21T10:23:37;20.20;99.90
11934;DHT22;6026;48.784;9.198;2023-02-21T10:26:08;20.40;99.90
11934;DHT22;6026;48.784;9.198;2023-02-21T10:28:34;20.40;99.90
11934;DHT22;6026;48.784;9.198;2023-02-21T10:31:10;20.30;99.90
11934;DHT22;6026;48.784;9.198;2023-02-21T10:33:37;20.80;99.90
11934;DHT22;6026;48.784;9.198;2023-02-21T10:36:15;20.90;99.90
11934;DHT22;6026;48.784;9.198;2023-02-21T10:39:09;20.50;99.90
11934;DHT22;6026;48.784;9.198;2023-02-21T10:41:34;20.40;99.90
11934;DHT22;6026;48.784;9.198;2023-02-21T10:44:21;20.20;99.80
11934;DHT22;6026;48.784;9.198;2023-02-21T10:46:57;20.70;99.60
11934;DHT22;6026;48.784;9.198;2023-02-21T10:49:27;20.90;99.30
11934;DHT22;6026;48.784;9.198;2023-02-21T10:52:06;21.00;99.30
11934;DHT22;6026;48.784;9.198;2023-02-21T10:54:33;21.00;99.40
11934;DHT22;6026;48.784;9.198;2023-02-21T10:56:59;21.30;98.80
11934;DHT22;6026;48.784;9.198;2023-02-21T10:59:34;21.30;98.80
11934;DHT22;6026;48.784;9.198;2023-02-21T11:02:31;21.50;99.30
11934;DHT22;6026;48.784;9.198;2023-02-21T11:05:18;21.70;98.70
11934;DHT22;6026;48.784;9.198;2023-02-21T11:08:00;21.80;98.30
11934;DHT22;6026;48.784;9.198;2023-02-21T11:13:01;21.60;98.60
11934;DHT22;6026;48.784;9.198;2023-02-21T11:15:27;22.00;98.10
11934;DHT22;6026;48.784;9.198;2023-02-21T11:18:23;22.10;97.90
11934;DHT22;6026;48.784;9.198;2023-02-21T11:20:49;21.90;97.90
11934;DHT22;6026;48.784;9.198;2023-02-21T11:25:43;21.30;98.00
11934;DHT22;6026;48.784;9.198;2023-02-21T11:30:43;22.10;98.30
11934;DHT22;6026;48.784;9.198;2023-02-21T11:33:11;22.20;97.50
11934;DHT22;6026;48.784;9.198;2023-02-21T11:35:43;22.00;97.80
11934;DHT22;6026;48.784;9.198;2023-02-21T11:40:55;22.40;97.00
11934;DHT22;6026;48.784;9.198;2023-02-21T11:51:48;23.10;96.00
11934;DHT22;6026;48.784;9.198;2023-02-21T11:54:15;22.20;96.50
11934;DHT22;6026;48.784;9.198;2023-02-21T11:57:19;22.60;96.10
11934;DHT22;6026;48.784;9.198;2023-02-21T11:59:55;22.60;96.40
11934;DHT22;6026;48.784;9.198;2023-02-21T12:02:49;22.70;95.60
11934;DHT22;6026;48.784;9.198;2023-02-21T12:05:27;23.30;95.20
11934;DHT22;6026;48.784;9.198;2023-02-21T12:11:06;23.50;94.80
11934;DHT22;6026;48.784;9.198;2023-02-21T12:14:07;23.40;95.10
11934;DHT22;6026;48.784;9.198;2023-02-21T12:31:03;23.80;94.00
11934;DHT22;6026;48.784;9.198;2023-02-21T12:50:39;24.20;93.50
11934;DHT22;6026;48.784;9.198;2023-02-21T12:53:25;24.10;93.30
11934;DHT22;6026;48.784;9.198;2023-02-21T12:56:04;24.40;92.90
11934;DHT22;6026;48.784;9.198;2023-02-21T12:58:36;23.80;92.90
11934;DHT22;6026;48.784;9.198;2023-02-21T13:06:40;24.00;92.80
11934;DHT22;6026;48.784;9.198;2023-02-21T13:12:16;24.30;92.20
11934;DHT22;6026;48.784;9.198;2023-02-21T13:17:41;23.90;92.60
11934;DHT22;6026;48.784;9.198;2023-02-21T13:20:13;24.20;92.10
11934;DHT22;6026;48.784;9.198;2023-02-21T13:28:40;24.70;91.70
11934;DHT22;6026;48.784;9.198;2023-02-21T13:31:18;24.50;92.20
11934;DHT22;6026;48.784;9.198;2023-02-21T13:33:49;24.70;92.30
11934;DHT22;6026;48.784;9.198;2023-02-21T13:39:19;24.10;92.10
11934;DHT22;6026;48.784;9.198;2023-02-21T13:41:52;23.50;92.00
11934;DHT22;6026;48.784;9.198;2023-02-21T13:44:30;23.80;92.10
11934;DHT22;6026;48.784;9.198;2023-02-21T13:49:56;24.10;91.80
11934;DHT22;6026;48.784;9.198;2023-02-21T13:52:26;23.70;92.40
11934;DHT22;6026;48.784;9.198;2023-02-21T14:02:57;24.20;91.90
11934;DHT22;6026;48.784;9.198;2023-02-21T14:05:24;24.70;91.00
11934;DHT22;6026;48.784;9.198;2023-02-21T14:07:54;24.80;91.00
11934;DHT22;6026;48.784;9.198;2023-02-21T14:10:26;24.50;91.20
11934;DHT22;6026;48.784;9.198;2023-02-21T14:12:56;23.90;91.30
11934;DHT22;6026;48.784;9.198;2023-02-21T14:15:23;23.70;91.50
11934;DHT22;6026;48.784;9.198;2023-02-21T14:18:00;23.50;91.50
11934;DHT22;6026;48.784;9.198;2023-02-21T14:20:25;24.30;91.50
11934;DHT22;6026;48.784;9.198;2023-02-21T14:22:51;24.50;90.90
11934;DHT22;6026;48.784;9.198;2023-02-21T14:25:21;23.90;91.10
11934;DHT22;6026;48.784;9.198;2023-02-21T14:27:49;24.30;91.50
11934;DHT22;6026;48.784;9.198;2023-02-21T14:30:32;24.50;90.90
11934;DHT22;6026;48.784;9.198;2023-02-21T14:33:17;23.70;91.50
11934;DHT22;6026;48.784;9.198;2023-02-21T14:35:58;24.10;91.00
11934;DHT22;6026;48.784;9.198;2023-02-21T14:38:27;24.40;90.80
11934;DHT22;6026;48.784;9.198;2023-02-21T14:41:09;24.60;90.30
11934;DHT22;6026;48.784;9.198;2023-02-21T14:43:56;24.20;90.50
11934;DHT22;6026;48.784;9.198;2023-02-21T14:54:59;24.20;90.90
11934;DHT22;6026;48.784;9.198;2023-02-21T15:02:55;24.00;90.90
11934;DHT22;6026;48.784;9.198;2023-02-21T15:05:37;24.00;90.90
11934;DHT22;6026;48.784;9.198;2023-02-21T15:08:08;24.20;90.50
11934;DHT22;6026;48.784;9.198;2023-02-21T15:10:42;23.40;90.70
11934;DHT22;6026;48.784;9.198;2023-02-21T15:13:26;23.10;91.10
11934;DHT22;6026;48.784;9.198;2023-02-21T15:16:04;23.20;91.40
11934;DHT22;6026;48.784;9.198;2023-02-21T15:18:35;23.40;91.20
11934;DHT22;6026;48.784;9.198;2023-02-21T15:21:16;23.40;91.30
11934;DHT22;6026;48.784;9.198;2023-02-21T15:23:48;23.20;91.70
11934;DHT22;6026;48.784;9.198;2023-02-21T15:26:25;23.20;92.10
11934;DHT22;6026;48.784;9.198;2023-02-21T15:29:13;23.00;92.50
11934;DHT22;6026;48.784;9.198;2023-02-21T15:31:51;22.80;92.60
11934;DHT22;6026;48.784;9.198;2023-02-21T15:34:25;22.60;92.70
11934;DHT22;6026;48.784;9.198;2023-02-21T15:37:23;22.60;92.50
11934;DHT22;6026;48.784;9.198;2023-02-21T15:39:59;22.40;92.80
11934;DHT22;6026;48.784;9.198;2023-02-21T15:42:26;22.10;92.70
11934;DHT22;6026;48.784;9.198;2023-02-21T15:45:04;21.60;93.40
11934;DHT22;6026;48.784;9.198;2023-02-21T15:47:32;21.00;94.50
11934;DHT22;6026;48.784;9.198;2023-02-21T15:57:38;19.50;96.50
11934;DHT22;6026;48.784;9.198;2023-02-21T16:02:42;18.90;97.50
11934;DHT22;6026;48.784;9.198;2023-02-21T16:05:28;18.70;98.00
11934;DHT22;6026;48.784;9.198;2023-02-21T16:07:59;18.30;98.50
11934;DHT22;6026;48.784;9.198;2023-02-21T16:10:25;17.90;99.10
11934;DHT22;6026;48.784;9.198;2023-02-21T16:13:09;17.70;99.40
11934;DHT22;6026;48.784;9.198;2023-02-21T16:15:36;17.60;99.70
11934;DHT22;6026;48.784;9.198;2023-02-21T16:18:07;17.30;99.90
11934;DHT22;6026;48.784;9.198;2023-02-21T16:20:36;17.10;99.90
11934;DHT22;6026;48.784;9.198;2023-02-21T16:23:22;16.80;99.90
11934;DHT22;6026;48.784;9.198;2023-02-21T16:25:56;16.70;99.90
11934;DHT22;6026;48.784;9.198;2023-02-21T16:28:22;16.50;99.90
11934;DHT22;6026;48.784;9.198;2023-02-21T16:30:48;16.20;99.90
11934;DHT22;6026;48.784;9.198;2023-02-21T16:33:13;16.00;99.90
11934;DHT22;6026;48.784;9.198;2023-02-21T16:35:39;15.90;99.90
11934;DHT22;6026;48.784;9.198;2023-02-21T16:38:05;15.80;99.90
11934;DHT22;6026;48.784;9.198;2023-02-21T16:40:34;15.60;99.90
11934;DHT22;6026;48.784;9.198;2023-02-21T16:43:01;15.50;99.90
11934;DHT22;6026;48.784;9.198;2023-02-21T16:45:28;15.50;99.90
11934;DHT22;6026;48.784;9.198;2023-02-21T16:48:02;15.40;99.90
11934;DHT22;6026;48.784;9.198;2023-02-21T16:50:31;15.30;99.90
11934;DHT22;6026;48.784;9.198;2023-02-21T16:52:58;15.30;99.90
11934;DHT22;6026;48.784;9.198;2023-02-21T16:55:23;15.30;99.90
11934;DHT22;6026;48.784;9.198;2023-02-21T16:57:51;15.20;99.90
11934;DHT22;6026;48.784;9.198;2023-02-21T17:00:20;15.10;99.90
11934;DHT22;6026;48.784;9.198;2023-02-21T17:02:50;15.00;99.90
11934;DHT22;6026;48.784;9.198;2023-02-21T17:05:17;14.90;99.90
11934;DHT22;6026;48.784;9.198;2023-02-21T17:07:43;14.80;99.90
11934;DHT22;6026;48.784;9.198;2023-02-21T17:10:10;14.70;99.90
11934;DHT22;6026;48.784;9.198;2023-02-21T17:12:36;14.50;99.90
11934;DHT22;6026;48.784;9.198;2023-02-21T17:15:02;14.40;99.90
11934;DHT22;6026;48.784;9.198;2023-02-21T17:17:27;14.30;99.90
11934;DHT22;6026;48.784;9.198;2023-02-21T17:19:53;14.20;99.90
11934;DHT22;6026;48.784;9.198;2023-02-21T17:22:18;14.10;99.90
11934;DHT22;6026;48.784;9.198;2023-02-21T17:24:44;13.90;99.90
11934;DHT22;6026;48.784;9.198;2023-02-21T17:27:10;13.90;99.90
11934;DHT22;6026;48.784;9.198;2023-02-21T17:29:35;13.80;99.90
11934;DHT22;6026;48.784;9.198;2023-02-21T17:32:02;13.80;99.90
11934;DHT22;6026;48.784;9.198;2023-02-21T17:34:32;13.70;99.90
11934;DHT22;6026;48.784;9.198;2023-02-21T17:36:58;13.60;99.90
11934;DHT22;6026;48.784;9.198;2023-02-21T17:39:24;13.60;99.90
11934;DHT22;6026;48.784;9.198;2023-02-21T17:41:50;13.30;99.90
11934;DHT22;6026;48.784;9.198;2023-02-21T17:44:16;13.10;99.90
11934;DHT22;6026;48.784;9.198;2023-02-21T17:46:49;13.00;99.90
11934;DHT22;6026;48.784;9.198;2023-02-21T17:49:17;13.00;99.90
11934;DHT22;6026;48.784;9.198;2023-02-21T17:51:43;13.10;99.90
11934;DHT22;6026;48.784;9.198;2023-02-21T17:54:09;13.00;99.90
11934;DHT22;6026;48.784;9.198;2023-02-21T17:56:35;13.00;99.90
11934;DHT22;6026;48.784;9.198;2023-02-21T17:59:00;12.90;99.90
11934;DHT22;6026;48.784;9.198;2023-02-21T18:01:26;13.00;99.90
11934;DHT22;6026;48.784;9.198;2023-02-21T18:03:54;12.90;99.90
11934;DHT22;6026;48.784;9.198;2023-02-21T18:06:20;12.90;99.90
11934;DHT22;6026;48.784;9.198;2023-02-21T18:08:45;12.90;99.90
11934;DHT22;6026;48.784;9.198;2023-02-21T18:11:13;12.90;99.90
11934;DHT22;6026;48.784;9.198;2023-02-21T18:13:40;12.80;99.90
11934;DHT22;6026;48.784;9.198;2023-02-21T18:16:06;12.80;99.90
11934;DHT22;6026;48.784;9.198;2023-02-21T18:18:32;12.70;99.90
11934;DHT22;6026;48.784;9.198;2023-02-21T18:20:59;12.60;99.90
11934;DHT22;6026;48.784;9.198;2023-02-21T18:23:27;12.50;99.90
11934;DHT22;6026;48.784;9.198;2023-02-21T18:25:53;12.40;99.90
11934;DHT22;6026;48.784;9.198;2023-02-21T18:28:18;12.40;99.90
11934;DHT22;6026;48.784;9.198;2023-02-21T18:30:44;12.40;99.90
11934;DHT22;6026;48.784;9.198;2023-02-21T18:33:11;12.30;99.90
11934;DHT22;6026;48.784;9.198;2023-02-21T18:35:36;12.30;99.90
11934;DHT22;6026;48.784;9.198;2023-02-21T18:38:02;12.30;99.90
11934;DHT22;6026;48.784;9.198;2023-02-21T18:40:27;12.20;99.90
11934;DHT22;6026;48.784;9.198;2023-02-21T18:43:00;12.20;99.90
11934;DHT22;6026;48.784;9.198;2023-02-21T18:45:26;12.20;99.90
11934;DHT22;6026;48.784;9.198;2023-02-21T18:47:52;12.20;99.90